sensor_id;sensor_type;location;lat;lon;timestamp;P1;durP1;ratioP1;P2;durP2;ratioP2
60243;SDS011;46106;51.468;5.814;2023-06-14T00:01:45;5.10;;;4.60;;
60243;SDS011;46106;51.468;5.814;2023-06-14T00:04:10;6.78;;;5.00;;
60243;SDS011;46106;51.468;5.814;2023-06-14T00:06:36;11.80;;;4.95;;
60243;SDS011;46106;51.468;5.814;2023-06-14T00:09:03;6.65;;;4.57;;
60243;SDS011;46106;51.468;5.814;2023-06-14T00:11:30;10.73;;;4.75;;
60243;SDS011;46106;51.468;5.814;2023-06-14T00:13:56;9.85;;;4.57;;
60243;SDS011;46106;51.468;5.814;2023-06-14T00:16:22;7.38;;;4.45;;
60243;SDS011;46106;51.468;5.814;2023-06-14T00:18:48;8.43;;;4.45;;
60243;SDS011;46106;51.468;5.814;2023-06-14T00:21:14;9.55;;;4.57;;
60243;SDS011;46106;51.468;5.814;2023-06-14T00:23:39;9.90;;;4.63;;
60243;SDS011;46106;51.468;5.814;2023-06-14T00:26:05;5.20;;;4.30;;
60243;SDS011;46106;51.468;5.814;2023-06-14T00:28:30;5.43;;;4.18;;
60243;SDS011;46106;51.468;5.814;2023-06-14T00:30:56;6.63;;;4.13;;
60243;SDS011;46106;51.468;5.814;2023-06-14T00:33:21;5.32;;;4.30;;
60243;SDS011;46106;51.468;5.814;2023-06-14T00:35:47;15.00;;;5.25;;
60243;SDS011;46106;51.468;5.814;2023-06-14T00:38:12;10.07;;;4.53;;
60243;SDS011;46106;51.468;5.814;2023-06-14T00:40:38;6.45;;;4.38;;
60243;SDS011;46106;51.468;5.814;2023-06-14T00:43:03;5.05;;;4.00;;
60243;SDS011;46106;51.468;5.814;2023-06-14T00:45:29;9.98;;;4.38;;
60243;SDS011;46106;51.468;5.814;2023-06-14T00:47:56;5.53;;;4.00;;
60243;SDS011;46106;51.468;5.814;2023-06-14T00:50:22;7.30;;;4.32;;
60243;SDS011;46106;51.468;5.814;2023-06-14T00:52:49;7.53;;;3.97;;
60243;SDS011;46106;51.468;5.814;2023-06-14T00:55:15;8.57;;;4.47;;
60243;SDS011;46106;51.468;5.814;2023-06-14T00:57:41;8.50;;;4.60;;
60243;SDS011;46106;51.468;5.814;2023-06-14T01:00:07;5.80;;;4.38;;
60243;SDS011;46106;51.468;5.814;2023-06-14T01:02:34;6.97;;;4.22;;
60243;SDS011;46106;51.468;5.814;2023-06-14T01:05:03;6.10;;;3.97;;
60243;SDS011;46106;51.468;5.814;2023-06-14T01:13:52;5.93;;;3.70;;
60243;SDS011;46106;51.468;5.814;2023-06-14T01:16:01;5.40;;;3.58;;
60243;SDS011;46106;51.468;5.814;2023-06-14T01:18:28;7.60;;;3.92;;
60243;SDS011;46106;51.468;5.814;2023-06-14T01:20:54;8.10;;;3.88;;
60243;SDS011;46106;51.468;5.814;2023-06-14T01:23:21;7.00;;;4.00;;
60243;SDS011;46106;51.468;5.814;2023-06-14T01:25:47;5.47;;;3.58;;
60243;SDS011;46106;51.468;5.814;2023-06-14T01:28:18;7.40;;;3.25;;
60243;SDS011;46106;51.468;5.814;2023-06-14T01:30:48;3.65;;;3.35;;
60243;SDS011;46106;51.468;5.814;2023-06-14T01:33:24;5.97;;;3.55;;
60243;SDS011;46106;51.468;5.814;2023-06-14T01:35:53;4.78;;;4.03;;
60243;SDS011;46106;51.468;5.814;2023-06-14T01:38:21;4.18;;;3.50;;
60243;SDS011;46106;51.468;5.814;2023-06-14T01:40:49;7.97;;;3.60;;
60243;SDS011;46106;51.468;5.814;2023-06-14T01:43:16;6.55;;;3.60;;
60243;SDS011;46106;51.468;5.814;2023-06-14T01:45:44;7.38;;;3.60;;
60243;SDS011;46106;51.468;5.814;2023-06-14T01:48:12;9.88;;;3.25;;
60243;SDS011;46106;51.468;5.814;2023-06-14T01:50:37;6.57;;;3.53;;
60243;SDS011;46106;51.468;5.814;2023-06-14T01:53:05;9.43;;;3.53;;
60243;SDS011;46106;51.468;5.814;2023-06-14T01:55:32;7.10;;;3.40;;
60243;SDS011;46106;51.468;5.814;2023-06-14T01:58:02;4.75;;;3.58;;
60243;SDS011;46106;51.468;5.814;2023-06-14T02:00:28;7.22;;;3.47;;
60243;SDS011;46106;51.468;5.814;2023-06-14T02:02:53;5.40;;;3.53;;
60243;SDS011;46106;51.468;5.814;2023-06-14T02:05:18;4.13;;;3.38;;
60243;SDS011;46106;51.468;5.814;2023-06-14T02:07:45;8.52;;;4.05;;
60243;SDS011;46106;51.468;5.814;2023-06-14T02:10:11;6.50;;;4.10;;
60243;SDS011;46106;51.468;5.814;2023-06-14T02:12:37;7.47;;;3.45;;
60243;SDS011;46106;51.468;5.814;2023-06-14T02:15:02;6.55;;;3.50;;
60243;SDS011;46106;51.468;5.814;2023-06-14T02:17:28;4.20;;;3.20;;
60243;SDS011;46106;51.468;5.814;2023-06-14T02:19:54;7.60;;;3.53;;
60243;SDS011;46106;51.468;5.814;2023-06-14T02:22:22;10.27;;;3.45;;
60243;SDS011;46106;51.468;5.814;2023-06-14T02:24:48;5.03;;;3.28;;
60243;SDS011;46106;51.468;5.814;2023-06-14T02:27:13;8.60;;;3.22;;
60243;SDS011;46106;51.468;5.814;2023-06-14T02:29:39;8.65;;;3.00;;
60243;SDS011;46106;51.468;5.814;2023-06-14T02:32:05;5.65;;;3.72;;
60243;SDS011;46106;51.468;5.814;2023-06-14T02:34:32;5.25;;;3.55;;
60243;SDS011;46106;51.468;5.814;2023-06-14T02:36:59;5.55;;;3.30;;
60243;SDS011;46106;51.468;5.814;2023-06-14T02:39:25;7.28;;;3.58;;
60243;SDS011;46106;51.468;5.814;2023-06-14T02:41:51;6.25;;;3.63;;
60243;SDS011;46106;51.468;5.814;2023-06-14T02:44:19;7.07;;;3.50;;
60243;SDS011;46106;51.468;5.814;2023-06-14T02:46:49;5.43;;;3.53;;
60243;SDS011;46106;51.468;5.814;2023-06-14T02:49:14;5.97;;;3.22;;
60243;SDS011;46106;51.468;5.814;2023-06-14T02:51:39;7.40;;;3.15;;
60243;SDS011;46106;51.468;5.814;2023-06-14T02:54:05;3.95;;;2.90;;
60243;SDS011;46106;51.468;5.814;2023-06-14T02:56:30;6.95;;;3.88;;
60243;SDS011;46106;51.468;5.814;2023-06-14T02:58:56;10.63;;;3.72;;
60243;SDS011;46106;51.468;5.814;2023-06-14T03:01:22;9.73;;;3.58;;
60243;SDS011;46106;51.468;5.814;2023-06-14T03:03:48;8.35;;;3.55;;
60243;SDS011;46106;51.468;5.814;2023-06-14T03:06:13;5.18;;;3.45;;
60243;SDS011;46106;51.468;5.814;2023-06-14T03:08:41;5.55;;;3.63;;
60243;SDS011;46106;51.468;5.814;2023-06-14T03:11:07;6.63;;;3.78;;
60243;SDS011;46106;51.468;5.814;2023-06-14T03:13:36;5.32;;;3.70;;
60243;SDS011;46106;51.468;5.814;2023-06-14T03:16:02;5.35;;;3.75;;
60243;SDS011;46106;51.468;5.814;2023-06-14T03:18:31;5.68;;;3.60;;
60243;SDS011;46106;51.468;5.814;2023-06-14T03:21:00;5.20;;;3.43;;
60243;SDS011;46106;51.468;5.814;2023-06-14T03:23:26;7.70;;;3.60;;
60243;SDS011;46106;51.468;5.814;2023-06-14T03:25:55;7.47;;;3.08;;
60243;SDS011;46106;51.468;5.814;2023-06-14T03:28:21;7.40;;;4.05;;
60243;SDS011;46106;51.468;5.814;2023-06-14T03:30:46;4.95;;;3.92;;
60243;SDS011;46106;51.468;5.814;2023-06-14T03:33:12;3.72;;;3.20;;
60243;SDS011;46106;51.468;5.814;2023-06-14T03:35:37;6.60;;;3.28;;
60243;SDS011;46106;51.468;5.814;2023-06-14T03:38:03;5.85;;;3.55;;
60243;SDS011;46106;51.468;5.814;2023-06-14T03:40:29;7.82;;;3.60;;
60243;SDS011;46106;51.468;5.814;2023-06-14T03:42:54;5.53;;;3.50;;
60243;SDS011;46106;51.468;5.814;2023-06-14T03:45:21;4.50;;;3.45;;
60243;SDS011;46106;51.468;5.814;2023-06-14T03:47:47;4.55;;;3.85;;
60243;SDS011;46106;51.468;5.814;2023-06-14T03:50:12;6.68;;;3.65;;
60243;SDS011;46106;51.468;5.814;2023-06-14T03:52:38;6.72;;;3.60;;
60243;SDS011;46106;51.468;5.814;2023-06-14T03:55:04;6.22;;;2.95;;
60243;SDS011;46106;51.468;5.814;2023-06-14T03:57:29;9.45;;;3.97;;
60243;SDS011;46106;51.468;5.814;2023-06-14T03:59:55;8.05;;;3.38;;
60243;SDS011;46106;51.468;5.814;2023-06-14T04:02:21;9.88;;;3.33;;
60243;SDS011;46106;51.468;5.814;2023-06-14T04:04:47;9.20;;;3.72;;
60243;SDS011;46106;51.468;5.814;2023-06-14T04:07:13;8.98;;;3.92;;
60243;SDS011;46106;51.468;5.814;2023-06-14T04:09:40;10.93;;;3.28;;
60243;SDS011;46106;51.468;5.814;2023-06-14T04:12:06;13.50;;;3.33;;
60243;SDS011;46106;51.468;5.814;2023-06-14T04:14:34;11.05;;;4.43;;
60243;SDS011;46106;51.468;5.814;2023-06-14T04:17:00;13.60;;;3.67;;
60243;SDS011;46106;51.468;5.814;2023-06-14T04:19:26;9.35;;;3.70;;
60243;SDS011;46106;51.468;5.814;2023-06-14T04:21:51;10.35;;;3.92;;
60243;SDS011;46106;51.468;5.814;2023-06-14T04:24:17;8.45;;;3.42;;
60243;SDS011;46106;51.468;5.814;2023-06-14T04:26:43;10.10;;;3.95;;
60243;SDS011;46106;51.468;5.814;2023-06-14T04:29:15;8.43;;;3.38;;
60243;SDS011;46106;51.468;5.814;2023-06-14T04:31:41;5.30;;;3.30;;
60243;SDS011;46106;51.468;5.814;2023-06-14T04:34:09;10.52;;;3.90;;
60243;SDS011;46106;51.468;5.814;2023-06-14T04:36:41;3.85;;;3.45;;
60243;SDS011;46106;51.468;5.814;2023-06-14T04:39:20;6.45;;;3.60;;
60243;SDS011;46106;51.468;5.814;2023-06-14T04:41:48;6.38;;;4.13;;
60243;SDS011;46106;51.468;5.814;2023-06-14T04:44:17;13.40;;;3.50;;
60243;SDS011;46106;51.468;5.814;2023-06-14T04:46:44;12.20;;;3.92;;
60243;SDS011;46106;51.468;5.814;2023-06-14T04:49:14;11.30;;;3.75;;
60243;SDS011;46106;51.468;5.814;2023-06-14T04:51:43;9.80;;;3.78;;
60243;SDS011;46106;51.468;5.814;2023-06-14T04:54:10;10.25;;;4.68;;
60243;SDS011;46106;51.468;5.814;2023-06-14T04:56:39;8.00;;;4.40;;
60243;SDS011;46106;51.468;5.814;2023-06-14T04:59:05;10.90;;;4.32;;
60243;SDS011;46106;51.468;5.814;2023-06-14T05:01:30;6.15;;;4.03;;
60243;SDS011;46106;51.468;5.814;2023-06-14T05:03:57;8.57;;;4.05;;
60243;SDS011;46106;51.468;5.814;2023-06-14T05:06:23;9.82;;;4.40;;
60243;SDS011;46106;51.468;5.814;2023-06-14T05:08:48;11.40;;;4.20;;
60243;SDS011;46106;51.468;5.814;2023-06-14T05:11:14;5.43;;;3.85;;
60243;SDS011;46106;51.468;5.814;2023-06-14T05:13:39;4.25;;;3.85;;
60243;SDS011;46106;51.468;5.814;2023-06-14T05:16:06;8.70;;;4.10;;
60243;SDS011;46106;51.468;5.814;2023-06-14T05:18:32;5.72;;;4.13;;
60243;SDS011;46106;51.468;5.814;2023-06-14T05:21:00;13.65;;;3.83;;
60243;SDS011;46106;51.468;5.814;2023-06-14T05:23:26;8.18;;;3.25;;
60243;SDS011;46106;51.468;5.814;2023-06-14T05:25:52;5.88;;;3.53;;
60243;SDS011;46106;51.468;5.814;2023-06-14T05:28:18;6.05;;;3.55;;
60243;SDS011;46106;51.468;5.814;2023-06-14T05:30:43;4.35;;;3.05;;
60243;SDS011;46106;51.468;5.814;2023-06-14T05:33:09;6.63;;;3.13;;
60243;SDS011;46106;51.468;5.814;2023-06-14T05:35:34;4.45;;;2.92;;
60243;SDS011;46106;51.468;5.814;2023-06-14T05:38:00;3.90;;;3.03;;
60243;SDS011;46106;51.468;5.814;2023-06-14T05:40:25;7.55;;;2.92;;
60243;SDS011;46106;51.468;5.814;2023-06-14T05:42:50;8.38;;;3.00;;
60243;SDS011;46106;51.468;5.814;2023-06-14T05:45:16;10.70;;;2.88;;
60243;SDS011;46106;51.468;5.814;2023-06-14T05:47:45;6.78;;;2.75;;
60243;SDS011;46106;51.468;5.814;2023-06-14T05:50:10;4.88;;;2.83;;
60243;SDS011;46106;51.468;5.814;2023-06-14T05:52:36;7.72;;;3.10;;
60243;SDS011;46106;51.468;5.814;2023-06-14T05:55:02;8.68;;;2.67;;
60243;SDS011;46106;51.468;5.814;2023-06-14T05:57:28;6.22;;;2.88;;
60243;SDS011;46106;51.468;5.814;2023-06-14T05:59:54;10.88;;;3.30;;
60243;SDS011;46106;51.468;5.814;2023-06-14T06:02:20;15.98;;;3.20;;
60243;SDS011;46106;51.468;5.814;2023-06-14T06:04:45;11.13;;;2.92;;
60243;SDS011;46106;51.468;5.814;2023-06-14T06:07:11;4.55;;;3.10;;
60243;SDS011;46106;51.468;5.814;2023-06-14T06:09:36;6.45;;;3.15;;
60243;SDS011;46106;51.468;5.814;2023-06-14T06:12:02;10.10;;;3.50;;
60243;SDS011;46106;51.468;5.814;2023-06-14T06:14:28;5.43;;;3.10;;
60243;SDS011;46106;51.468;5.814;2023-06-14T06:16:55;6.47;;;2.72;;
60243;SDS011;46106;51.468;5.814;2023-06-14T06:19:20;3.28;;;2.90;;
60243;SDS011;46106;51.468;5.814;2023-06-14T06:21:46;10.05;;;2.95;;
60243;SDS011;46106;51.468;5.814;2023-06-14T06:24:11;4.97;;;2.67;;
60243;SDS011;46106;51.468;5.814;2023-06-14T06:26:36;9.02;;;2.70;;
60243;SDS011;46106;51.468;5.814;2023-06-14T06:29:02;5.20;;;2.42;;
60243;SDS011;46106;51.468;5.814;2023-06-14T06:31:28;9.52;;;2.53;;
60243;SDS011;46106;51.468;5.814;2023-06-14T06:33:54;6.55;;;2.70;;
60243;SDS011;46106;51.468;5.814;2023-06-14T06:36:20;10.07;;;2.72;;
60243;SDS011;46106;51.468;5.814;2023-06-14T06:38:47;11.23;;;2.78;;
60243;SDS011;46106;51.468;5.814;2023-06-14T06:41:12;13.13;;;2.88;;
60243;SDS011;46106;51.468;5.814;2023-06-14T06:43:38;8.38;;;2.60;;
60243;SDS011;46106;51.468;5.814;2023-06-14T06:46:03;13.75;;;3.03;;
60243;SDS011;46106;51.468;5.814;2023-06-14T06:48:29;8.82;;;2.28;;
60243;SDS011;46106;51.468;5.814;2023-06-14T06:50:55;7.05;;;3.08;;
60243;SDS011;46106;51.468;5.814;2023-06-14T06:53:20;8.38;;;2.83;;
60243;SDS011;46106;51.468;5.814;2023-06-14T06:55:46;3.92;;;2.47;;
60243;SDS011;46106;51.468;5.814;2023-06-14T06:58:12;6.13;;;2.97;;
60243;SDS011;46106;51.468;5.814;2023-06-14T07:00:39;7.78;;;2.40;;
60243;SDS011;46106;51.468;5.814;2023-06-14T07:03:05;12.45;;;3.45;;
60243;SDS011;46106;51.468;5.814;2023-06-14T07:05:30;5.22;;;2.80;;
60243;SDS011;46106;51.468;5.814;2023-06-14T07:07:57;16.58;;;3.90;;
60243;SDS011;46106;51.468;5.814;2023-06-14T07:10:22;9.27;;;2.63;;
60243;SDS011;46106;51.468;5.814;2023-06-14T07:12:49;6.03;;;3.17;;
60243;SDS011;46106;51.468;5.814;2023-06-14T07:15:15;7.55;;;3.05;;
60243;SDS011;46106;51.468;5.814;2023-06-14T07:17:41;5.35;;;2.53;;
60243;SDS011;46106;51.468;5.814;2023-06-14T07:20:07;7.38;;;2.72;;
60243;SDS011;46106;51.468;5.814;2023-06-14T07:22:37;10.80;;;2.60;;
60243;SDS011;46106;51.468;5.814;2023-06-14T07:25:09;3.08;;;2.33;;
60243;SDS011;46106;51.468;5.814;2023-06-14T07:27:39;7.95;;;2.50;;
60243;SDS011;46106;51.468;5.814;2023-06-14T07:30:07;7.18;;;2.25;;
60243;SDS011;46106;51.468;5.814;2023-06-14T07:32:33;9.50;;;2.25;;
60243;SDS011;46106;51.468;5.814;2023-06-14T07:34:59;9.43;;;2.20;;
60243;SDS011;46106;51.468;5.814;2023-06-14T07:37:24;12.90;;;2.78;;
60243;SDS011;46106;51.468;5.814;2023-06-14T07:39:50;12.43;;;2.47;;
60243;SDS011;46106;51.468;5.814;2023-06-14T07:42:16;10.80;;;2.30;;
60243;SDS011;46106;51.468;5.814;2023-06-14T07:44:41;6.60;;;1.77;;
60243;SDS011;46106;51.468;5.814;2023-06-14T07:47:06;6.18;;;1.90;;
60243;SDS011;46106;51.468;5.814;2023-06-14T07:49:32;6.75;;;1.83;;
60243;SDS011;46106;51.468;5.814;2023-06-14T07:51:58;7.95;;;1.75;;
60243;SDS011;46106;51.468;5.814;2023-06-14T07:54:25;2.80;;;1.90;;
60243;SDS011;46106;51.468;5.814;2023-06-14T07:56:51;3.33;;;1.77;;
60243;SDS011;46106;51.468;5.814;2023-06-14T07:59:18;5.20;;;1.83;;
60243;SDS011;46106;51.468;5.814;2023-06-14T08:01:43;9.00;;;1.80;;
60243;SDS011;46106;51.468;5.814;2023-06-14T08:04:15;3.55;;;1.40;;
60243;SDS011;46106;51.468;5.814;2023-06-14T08:06:40;3.63;;;1.35;;
60243;SDS011;46106;51.468;5.814;2023-06-14T08:09:09;3.83;;;1.23;;
60243;SDS011;46106;51.468;5.814;2023-06-14T08:11:36;4.15;;;1.60;;
60243;SDS011;46106;51.468;5.814;2023-06-14T08:14:01;5.32;;;1.77;;
60243;SDS011;46106;51.468;5.814;2023-06-14T08:16:27;5.30;;;1.48;;
60243;SDS011;46106;51.468;5.814;2023-06-14T08:18:52;6.97;;;1.30;;
60243;SDS011;46106;51.468;5.814;2023-06-14T08:21:18;9.00;;;1.60;;
60243;SDS011;46106;51.468;5.814;2023-06-14T08:23:44;3.35;;;1.38;;
60243;SDS011;46106;51.468;5.814;2023-06-14T08:26:09;7.30;;;1.38;;
60243;SDS011;46106;51.468;5.814;2023-06-14T08:28:35;5.63;;;1.55;;
60243;SDS011;46106;51.468;5.814;2023-06-14T08:31:01;6.35;;;1.40;;
60243;SDS011;46106;51.468;5.814;2023-06-14T08:33:26;6.28;;;1.25;;
60243;SDS011;46106;51.468;5.814;2023-06-14T08:35:52;8.50;;;1.13;;
60243;SDS011;46106;51.468;5.814;2023-06-14T08:38:17;5.32;;;1.00;;
60243;SDS011;46106;51.468;5.814;2023-06-14T08:40:43;3.55;;;1.15;;
60243;SDS011;46106;51.468;5.814;2023-06-14T08:43:12;2.88;;;1.00;;
60243;SDS011;46106;51.468;5.814;2023-06-14T08:45:38;5.60;;;1.00;;
60243;SDS011;46106;51.468;5.814;2023-06-14T08:48:04;3.03;;;1.00;;
60243;SDS011;46106;51.468;5.814;2023-06-14T08:50:32;1.67;;;0.90;;
60243;SDS011;46106;51.468;5.814;2023-06-14T08:53:00;3.30;;;0.70;;
60243;SDS011;46106;51.468;5.814;2023-06-14T08:55:27;5.22;;;0.63;;
60243;SDS011;46106;51.468;5.814;2023-06-14T08:57:55;3.75;;;0.77;;
60243;SDS011;46106;51.468;5.814;2023-06-14T09:00:22;4.00;;;0.70;;
60243;SDS011;46106;51.468;5.814;2023-06-14T09:02:50;7.63;;;0.85;;
60243;SDS011;46106;51.468;5.814;2023-06-14T09:05:22;2.85;;;0.98;;
60243;SDS011;46106;51.468;5.814;2023-06-14T09:07:48;0.70;;;0.70;;
60243;SDS011;46106;51.468;5.814;2023-06-14T09:10:15;3.42;;;0.65;;
60243;SDS011;46106;51.468;5.814;2023-06-14T09:12:42;5.45;;;0.88;;
60243;SDS011;46106;51.468;5.814;2023-06-14T09:15:08;3.97;;;1.10;;
60243;SDS011;46106;51.468;5.814;2023-06-14T09:17:37;1.67;;;0.80;;
60243;SDS011;46106;51.468;5.814;2023-06-14T09:20:04;5.80;;;1.17;;
60243;SDS011;46106;51.468;5.814;2023-06-14T09:22:34;5.05;;;1.10;;
60243;SDS011;46106;51.468;5.814;2023-06-14T09:25:01;1.75;;;0.85;;
60243;SDS011;46106;51.468;5.814;2023-06-14T09:27:27;4.80;;;0.80;;
60243;SDS011;46106;51.468;5.814;2023-06-14T09:29:53;2.75;;;0.80;;
60243;SDS011;46106;51.468;5.814;2023-06-14T09:32:20;2.47;;;1.00;;
60243;SDS011;46106;51.468;5.814;2023-06-14T09:34:46;2.15;;;0.80;;
60243;SDS011;46106;51.468;5.814;2023-06-14T09:37:12;3.38;;;0.80;;
60243;SDS011;46106;51.468;5.814;2023-06-14T09:39:50;8.25;;;0.73;;
60243;SDS011;46106;51.468;5.814;2023-06-14T09:42:16;1.65;;;0.88;;
60243;SDS011;46106;51.468;5.814;2023-06-14T09:44:43;2.22;;;0.80;;
60243;SDS011;46106;51.468;5.814;2023-06-14T09:47:13;2.83;;;0.70;;
60243;SDS011;46106;51.468;5.814;2023-06-14T09:49:40;2.65;;;0.90;;
60243;SDS011;46106;51.468;5.814;2023-06-14T09:52:06;4.43;;;0.80;;
60243;SDS011;46106;51.468;5.814;2023-06-14T09:54:32;2.95;;;0.80;;
60243;SDS011;46106;51.468;5.814;2023-06-14T09:57:07;6.22;;;0.80;;
60243;SDS011;46106;51.468;5.814;2023-06-14T09:59:34;2.30;;;1.15;;
60243;SDS011;46106;51.468;5.814;2023-06-14T10:02:03;4.57;;;0.90;;
60243;SDS011;46106;51.468;5.814;2023-06-14T10:04:35;1.80;;;1.20;;
60243;SDS011;46106;51.468;5.814;2023-06-14T10:07:04;5.28;;;0.90;;
60243;SDS011;46106;51.468;5.814;2023-06-14T10:09:30;0.98;;;0.90;;
60243;SDS011;46106;51.468;5.814;2023-06-14T10:11:55;1.77;;;0.98;;
60243;SDS011;46106;51.468;5.814;2023-06-14T10:14:21;1.15;;;0.90;;
60243;SDS011;46106;51.468;5.814;2023-06-14T10:17:00;1.50;;;0.90;;
60243;SDS011;46106;51.468;5.814;2023-06-14T10:19:34;5.95;;;1.02;;
60243;SDS011;46106;51.468;5.814;2023-06-14T10:22:15;3.90;;;1.00;;
60243;SDS011;46106;51.468;5.814;2023-06-14T10:24:45;2.85;;;0.93;;
60243;SDS011;46106;51.468;5.814;2023-06-14T10:27:14;1.42;;;0.77;;
60243;SDS011;46106;51.468;5.814;2023-06-14T10:32:21;1.77;;;0.80;;
60243;SDS011;46106;51.468;5.814;2023-06-14T10:34:59;4.93;;;1.00;;
60243;SDS011;46106;51.468;5.814;2023-06-14T10:37:26;4.82;;;0.90;;
60243;SDS011;46106;51.468;5.814;2023-06-14T10:39:51;2.85;;;0.98;;
60243;SDS011;46106;51.468;5.814;2023-06-14T10:42:18;6.43;;;1.63;;
60243;SDS011;46106;51.468;5.814;2023-06-14T10:47:11;2.05;;;1.00;;
60243;SDS011;46106;51.468;5.814;2023-06-14T10:49:49;1.17;;;0.88;;
60243;SDS011;46106;51.468;5.814;2023-06-14T10:52:17;1.70;;;0.90;;
60243;SDS011;46106;51.468;5.814;2023-06-14T10:57:38;3.25;;;1.00;;
60243;SDS011;46106;51.468;5.814;2023-06-14T11:00:05;5.53;;;0.93;;
60243;SDS011;46106;51.468;5.814;2023-06-14T11:05:43;7.50;;;0.90;;
60243;SDS011;46106;51.468;5.814;2023-06-14T11:11:12;4.20;;;0.80;;
60243;SDS011;46106;51.468;5.814;2023-06-14T11:13:38;0.80;;;0.80;;
60243;SDS011;46106;51.468;5.814;2023-06-14T11:16:10;0.80;;;0.80;;
60243;SDS011;46106;51.468;5.814;2023-06-14T11:18:39;2.20;;;0.80;;
60243;SDS011;46106;51.468;5.814;2023-06-14T11:21:06;1.30;;;0.85;;
60243;SDS011;46106;51.468;5.814;2023-06-14T11:23:31;0.85;;;0.77;;
60243;SDS011;46106;51.468;5.814;2023-06-14T11:25:57;1.35;;;0.82;;
60243;SDS011;46106;51.468;5.814;2023-06-14T11:28:22;2.33;;;1.00;;
60243;SDS011;46106;51.468;5.814;2023-06-14T11:31:09;2.17;;;0.90;;
60243;SDS011;46106;51.468;5.814;2023-06-14T11:33:34;2.42;;;0.88;;
60243;SDS011;46106;51.468;5.814;2023-06-14T11:36:03;2.38;;;1.00;;
60243;SDS011;46106;51.468;5.814;2023-06-14T11:38:35;2.92;;;0.80;;
60243;SDS011;46106;51.468;5.814;2023-06-14T11:41:01;2.15;;;0.82;;
60243;SDS011;46106;51.468;5.814;2023-06-14T11:43:27;5.85;;;1.00;;
60243;SDS011;46106;51.468;5.814;2023-06-14T11:45:52;1.00;;;0.85;;
60243;SDS011;46106;51.468;5.814;2023-06-14T11:48:18;7.28;;;1.30;;
60243;SDS011;46106;51.468;5.814;2023-06-14T11:50:44;5.28;;;0.93;;
60243;SDS011;46106;51.468;5.814;2023-06-14T11:53:09;1.85;;;0.70;;
60243;SDS011;46106;51.468;5.814;2023-06-14T11:55:38;3.67;;;0.90;;
60243;SDS011;46106;51.468;5.814;2023-06-14T11:58:05;1.40;;;0.90;;
60243;SDS011;46106;51.468;5.814;2023-06-14T12:00:31;2.90;;;1.08;;
60243;SDS011;46106;51.468;5.814;2023-06-14T12:02:57;2.35;;;0.73;;
60243;SDS011;46106;51.468;5.814;2023-06-14T12:05:23;5.05;;;0.90;;
60243;SDS011;46106;51.468;5.814;2023-06-14T12:07:57;1.15;;;0.90;;
60243;SDS011;46106;51.468;5.814;2023-06-14T12:10:24;2.72;;;0.80;;
60243;SDS011;46106;51.468;5.814;2023-06-14T12:12:50;2.35;;;0.90;;
60243;SDS011;46106;51.468;5.814;2023-06-14T12:15:15;0.90;;;0.80;;
60243;SDS011;46106;51.468;5.814;2023-06-14T12:17:42;3.65;;;0.80;;
60243;SDS011;46106;51.468;5.814;2023-06-14T12:25:35;2.83;;;0.80;;
60243;SDS011;46106;51.468;5.814;2023-06-14T12:28:05;2.40;;;0.88;;
60243;SDS011;46106;51.468;5.814;2023-06-14T12:30:33;3.53;;;0.90;;
60243;SDS011;46106;51.468;5.814;2023-06-14T12:33:01;0.90;;;0.80;;
60243;SDS011;46106;51.468;5.814;2023-06-14T12:35:29;3.63;;;0.75;;
60243;SDS011;46106;51.468;5.814;2023-06-14T12:37:55;2.85;;;0.80;;
60243;SDS011;46106;51.468;5.814;2023-06-14T12:40:21;2.03;;;0.75;;
60243;SDS011;46106;51.468;5.814;2023-06-14T12:42:47;0.68;;;0.63;;
60243;SDS011;46106;51.468;5.814;2023-06-14T12:45:13;6.03;;;0.80;;
60243;SDS011;46106;51.468;5.814;2023-06-14T12:47:39;0.60;;;0.60;;
60243;SDS011;46106;51.468;5.814;2023-06-14T12:50:05;1.92;;;0.70;;
60243;SDS011;46106;51.468;5.814;2023-06-14T12:52:31;4.22;;;0.68;;
60243;SDS011;46106;51.468;5.814;2023-06-14T12:54:56;0.60;;;0.60;;
60243;SDS011;46106;51.468;5.814;2023-06-14T12:57:22;4.05;;;0.75;;
60243;SDS011;46106;51.468;5.814;2023-06-14T12:59:48;1.23;;;0.77;;
60243;SDS011;46106;51.468;5.814;2023-06-14T13:02:15;1.45;;;0.57;;
60243;SDS011;46106;51.468;5.814;2023-06-14T13:04:47;5.68;;;0.73;;
60243;SDS011;46106;51.468;5.814;2023-06-14T13:07:13;11.35;;;0.77;;
60243;SDS011;46106;51.468;5.814;2023-06-14T13:09:40;0.93;;;0.70;;
60243;SDS011;46106;51.468;5.814;2023-06-14T13:12:06;5.80;;;0.60;;
60243;SDS011;46106;51.468;5.814;2023-06-14T13:14:32;1.15;;;1.02;;
60243;SDS011;46106;51.468;5.814;2023-06-14T13:16:58;2.28;;;0.70;;
60243;SDS011;46106;51.468;5.814;2023-06-14T13:19:23;2.55;;;0.60;;
60243;SDS011;46106;51.468;5.814;2023-06-14T13:21:49;2.28;;;0.70;;
60243;SDS011;46106;51.468;5.814;2023-06-14T13:24:14;9.18;;;0.80;;
60243;SDS011;46106;51.468;5.814;2023-06-14T13:26:40;0.95;;;0.50;;
60243;SDS011;46106;51.468;5.814;2023-06-14T13:29:05;5.15;;;0.57;;
60243;SDS011;46106;51.468;5.814;2023-06-14T13:31:31;1.48;;;0.60;;
60243;SDS011;46106;51.468;5.814;2023-06-14T13:33:57;1.65;;;0.60;;
60243;SDS011;46106;51.468;5.814;2023-06-14T13:36:22;2.38;;;0.60;;
60243;SDS011;46106;51.468;5.814;2023-06-14T13:38:48;4.20;;;0.70;;
60243;SDS011;46106;51.468;5.814;2023-06-14T13:41:13;3.90;;;0.70;;
60243;SDS011;46106;51.468;5.814;2023-06-14T13:43:38;1.13;;;0.60;;
60243;SDS011;46106;51.468;5.814;2023-06-14T13:46:04;4.78;;;0.77;;
60243;SDS011;46106;51.468;5.814;2023-06-14T13:48:29;2.40;;;0.50;;
60243;SDS011;46106;51.468;5.814;2023-06-14T13:50:55;6.15;;;1.10;;
60243;SDS011;46106;51.468;5.814;2023-06-14T13:53:21;4.00;;;0.63;;
60243;SDS011;46106;51.468;5.814;2023-06-14T13:55:47;4.68;;;0.75;;
60243;SDS011;46106;51.468;5.814;2023-06-14T13:58:12;2.78;;;0.68;;
60243;SDS011;46106;51.468;5.814;2023-06-14T14:00:39;1.90;;;0.60;;
60243;SDS011;46106;51.468;5.814;2023-06-14T14:03:05;1.15;;;0.60;;
60243;SDS011;46106;51.468;5.814;2023-06-14T14:05:31;3.60;;;0.60;;
60243;SDS011;46106;51.468;5.814;2023-06-14T14:07:57;7.97;;;1.60;;
60243;SDS011;46106;51.468;5.814;2023-06-14T14:10:24;2.92;;;0.60;;
60243;SDS011;46106;51.468;5.814;2023-06-14T14:12:50;4.40;;;1.10;;
60243;SDS011;46106;51.468;5.814;2023-06-14T14:15:16;5.70;;;0.60;;
60243;SDS011;46106;51.468;5.814;2023-06-14T14:17:42;2.70;;;0.80;;
60243;SDS011;46106;51.468;5.814;2023-06-14T14:20:08;2.65;;;0.60;;
60243;SDS011;46106;51.468;5.814;2023-06-14T14:22:34;1.83;;;0.50;;
60243;SDS011;46106;51.468;5.814;2023-06-14T14:24:59;3.63;;;0.60;;
60243;SDS011;46106;51.468;5.814;2023-06-14T14:27:25;2.03;;;0.80;;
60243;SDS011;46106;51.468;5.814;2023-06-14T14:29:50;1.48;;;0.60;;
60243;SDS011;46106;51.468;5.814;2023-06-14T14:32:16;7.90;;;0.80;;
60243;SDS011;46106;51.468;5.814;2023-06-14T14:34:41;5.57;;;0.60;;
60243;SDS011;46106;51.468;5.814;2023-06-14T14:37:06;8.85;;;0.85;;
60243;SDS011;46106;51.468;5.814;2023-06-14T14:39:32;3.13;;;0.60;;
60243;SDS011;46106;51.468;5.814;2023-06-14T14:41:58;2.90;;;0.80;;
60243;SDS011;46106;51.468;5.814;2023-06-14T14:44:23;3.00;;;0.70;;
60243;SDS011;46106;51.468;5.814;2023-06-14T14:46:49;2.97;;;0.73;;
60243;SDS011;46106;51.468;5.814;2023-06-14T14:49:14;2.63;;;0.70;;
60243;SDS011;46106;51.468;5.814;2023-06-14T14:51:40;1.40;;;0.77;;
60243;SDS011;46106;51.468;5.814;2023-06-14T14:54:05;5.00;;;0.70;;
60243;SDS011;46106;51.468;5.814;2023-06-14T14:56:31;1.17;;;0.65;;
60243;SDS011;46106;51.468;5.814;2023-06-14T14:58:57;1.10;;;0.77;;
60243;SDS011;46106;51.468;5.814;2023-06-14T15:01:22;2.25;;;0.70;;
60243;SDS011;46106;51.468;5.814;2023-06-14T15:03:48;1.60;;;0.70;;
60243;SDS011;46106;51.468;5.814;2023-06-14T15:06:13;2.80;;;0.80;;
60243;SDS011;46106;51.468;5.814;2023-06-14T15:08:39;6.05;;;0.70;;